Brookfield, New Hampshire
Current Conditions -  °F | °C
As of 11:15 PM on Tuesday 21 Oct 2014 (Local Time) from KLCI Reporting Station
Overcast Overcast  
Wind Chill: 45°   Ceiling: 2200
Heat Index: 48°   Visibility: 8mi
Dew Point: 45°   Wind: 7mph
Humidity: 87%   Direction: 50°NE
Pressure: 30.05"   Gusts: NA
Location:  43.6057°N, 71.1496°W
Report Text: KLCI 220315Z AUTO 05006KT 8SM SCT013 OVC022 09/07 A3005 RMK AO1
Loading
Personal Weather Stations






























Interactive Weather Map
Tropical Storm Tracking
New forecast layout! Learn more

10-Day Weather Forecast

Advertisements
Track Severe Weather on mobile